Time;durP1;ratioP1;P1;durP2;ratioP2;P2;SDS_P1;SDS_P2;PMS_P1;PMS_P2;Temp;Humidity;BMP_temperature;BMP_pressure;BME280_temperature;BME280_humidity;BME280_pressure;Samples;Min_cycle;Max_cycle;Signal;HPM_P1;HPM_P2
2022/05/15 00:00:37;;;;;;;16.37;11.95;;;;;;;12.04;69.33;99294.15;4399933;79;21014;-81
2022/05/15 00:03:40;;;;;;;16.67;12.05;;;;;;;12.06;69.52;99290.45;4391182;79;21062;-81
2022/05/15 00:09:42;;;;;;;13.83;11.80;;;;;;;11.89;69.97;99300.67;4367252;79;21113;-80
2022/05/15 00:15:44;;;;;;;17.17;12.35;;;;;;;11.86;70.33;99295.94;4288178;80;21015;-80
2022/05/15 00:21:45;;;;;;;20.72;12.33;;;;;;;11.74;70.58;99294.84;4196019;83;21052;-80
2022/05/15 00:27:47;;;;;;;18.57;12.03;;;;;;;11.68;70.71;99296.91;4159654;83;21953;-80
2022/05/15 00:33:50;;;;;;;19.45;13.20;;;;;;;11.58;71.22;99301.08;4185204;83;21057;-80
2022/05/15 00:39:52;;;;;;;19.32;14.10;;;;;;;11.46;71.44;99299.95;4154607;83;21088;-80
2022/05/15 00:45:53;;;;;;;19.67;13.20;;;;;;;11.44;71.98;99300.11;4140991;84;21036;-80
2022/05/15 00:52:05;;;;;;;19.15;12.43;;;;;;;11.48;72.15;99302.33;4127603;85;21138;-80
2022/05/15 00:58:14;;;;;;;21.42;14.43;;;;;;;11.48;72.38;99298.22;4139283;84;21034;-80
2022/05/15 01:04:16;;;;;;;18.67;13.98;;;;;;;11.39;72.75;99299.86;4137471;84;21067;-80
2022/05/15 01:10:18;;;;;;;18.35;12.98;;;;;;;11.52;72.93;99290.81;4155897;82;21057;-80
2022/05/15 01:16:25;;;;;;;17.85;13.40;;;;;;;11.46;73.21;99306.81;4373462;79;21012;-80
2022/05/15 01:22:28;;;;;;;19.23;13.78;;;;;;;11.51;73.71;99298.84;4391422;79;21528;-80
2022/05/15 01:28:30;;;;;;;20.45;13.60;;;;;;;11.62;74.06;99291.53;4294104;81;21128;-80
2022/05/15 01:34:32;;;;;;;20.05;14.83;;;;;;;11.60;74.26;99301.50;4311649;81;21080;-80
2022/05/15 01:40:34;;;;;;;18.32;14.18;;;;;;;11.73;74.36;99297.95;4306720;81;21038;-80
2022/05/15 01:46:36;;;;;;;17.20;13.45;;;;;;;11.57;73.99;99309.11;4267739;81;20982;-81
2022/05/15 01:52:40;;;;;;;24.75;15.08;;;;;;;11.61;74.85;99303.64;4305280;81;21029;-80
2022/05/15 01:58:42;;;;;;;22.42;15.85;;;;;;;11.65;75.15;99305.89;4306632;81;21037;-80
2022/05/15 02:04:43;;;;;;;20.65;15.08;;;;;;;11.58;74.47;99295.59;4298422;81;21768;-80
2022/05/15 02:10:45;;;;;;;20.40;15.32;;;;;;;11.59;74.84;99299.13;4320299;81;20990;-80
2022/05/15 02:16:47;;;;;;;22.73;15.00;;;;;;;11.71;75.58;99301.64;4354117;80;21051;-80
2022/05/15 02:22:48;;;;;;;20.72;15.18;;;;;;;11.87;75.76;99300.85;4343803;80;21451;-80
2022/05/15 02:28:50;;;;;;;23.25;15.80;;;;;;;11.99;75.75;99310.18;4327516;80;20984;-81
2022/05/15 02:34:53;;;;;;;23.77;16.17;;;;;;;12.05;75.69;99312.21;4339084;80;21016;-80
2022/05/15 02:40:54;;;;;;;24.10;15.50;;;;;;;11.98;75.85;99312.73;4343042;80;21787;-81
2022/05/15 02:46:56;;;;;;;20.97;15.13;;;;;;;12.08;76.03;99322.43;4334638;80;21661;-80
2022/05/15 02:52:57;;;;;;;23.87;16.65;;;;;;;12.13;76.13;99322.67;4328045;80;21027;-80
2022/05/15 02:58:59;;;;;;;21.50;15.50;;;;;;;12.05;75.65;99320.44;4340056;80;21350;-80
2022/05/15 03:05:00;;;;;;;22.27;15.60;;;;;;;11.91;76.35;99312.64;4335564;80;21077;-81
2022/05/15 03:11:02;;;;;;;27.42;15.80;;;;;;;12.03;76.64;99320.59;4323457;80;20983;-80
2022/05/15 03:17:04;;;;;;;27.13;16.67;;;;;;;12.03;76.75;99321.97;4331104;80;21578;-82
2022/05/15 03:23:05;;;;;;;20.55;14.13;;;;;;;12.03;76.84;99320.59;4344157;81;21010;-81
2022/05/15 03:29:08;;;;;;;23.15;15.88;;;;;;;12.03;77.26;99324.14;4349191;80;21009;-81
2022/05/15 03:35:11;;;;;;;22.02;14.93;;;;;;;12.03;77.19;99326.88;4327064;80;21014;-80
2022/05/15 03:41:14;;;;;;;19.37;14.70;;;;;;;12.09;77.39;99327.34;4335854;80;21003;-82
2022/05/15 03:47:15;;;;;;;20.40;14.15;;;;;;;12.13;77.72;99341.88;4317045;80;26194;-81
2022/05/15 03:53:17;;;;;;;19.25;14.58;;;;;;;12.17;77.74;99339.95;4124699;85;21177;-81
2022/05/15 03:59:23;;;;;;;19.92;14.87;;;;;;;12.22;77.80;99350.59;4116235;85;21642;-81
2022/05/15 04:05:25;;;;;;;21.15;15.08;;;;;;;12.30;78.08;99348.13;4128851;85;21601;-81
2022/05/15 04:11:26;;;;;;;22.65;15.28;;;;;;;12.29;77.84;99344.58;4121055;84;21784;-80
2022/05/15 04:17:27;;;;;;;20.27;15.15;;;;;;;12.19;77.90;99342.54;4067130;86;22004;-80
2022/05/15 04:23:30;;;;;;;17.98;12.88;;;;;;;12.28;78.59;99353.99;4046734;86;21012;-80
2022/05/15 04:29:31;;;;;;;18.35;13.65;;;;;;;12.48;78.52;99355.36;4040969;86;21083;-80
2022/05/15 04:35:33;;;;;;;17.52;13.62;;;;;;;12.64;78.60;99360.02;4030854;86;21030;-80
2022/05/15 04:41:34;;;;;;;21.50;14.25;;;;;;;;;;4055583;87;21018;-80
2022/05/15 04:47:35;;;;;;;18.70;14.00;;;;;;;12.95;78.48;99368.91;4021249;85;20975;-81
2022/05/15 04:53:37;;;;;;;20.52;13.48;;;;;;;13.11;78.28;99370.83;4010788;86;21988;-80
2022/05/15 04:59:39;;;;;;;23.52;15.30;;;;;;;13.21;78.03;99365.97;4037935;87;20999;-80
2022/05/15 05:05:40;;;;;;;23.10;15.38;;;;;;;13.40;77.89;99378.87;4037083;86;21927;-81
2022/05/15 05:11:41;;;;;;;22.58;14.85;;;;;;;13.52;77.83;99383.23;4060867;84;21571;-80
2022/05/15 05:17:43;;;;;;;24.23;15.45;;;;;;;13.64;77.78;99389.19;4124999;85;21620;-81
2022/05/15 05:23:44;;;;;;;29.48;17.00;;;;;;;13.76;77.40;99391.63;4104416;84;21046;-81
2022/05/15 05:29:45;;;;;;;24.52;18.62;;;;;;;13.87;77.47;99401.30;4130523;84;22095;-80
2022/05/15 05:35:48;;;;;;;25.95;17.65;;;;;;;14.05;77.29;99402.15;4114724;84;21595;-81
2022/05/15 05:41:49;;;;;;;29.10;17.12;;;;;;;14.34;77.10;99405.81;4112682;84;22009;-81
2022/05/15 05:47:52;;;;;;;21.82;16.90;;;;;;;14.53;77.24;99411.77;4115049;84;21006;-80
2022/05/15 05:53:53;;;;;;;26.07;15.53;;;;;;;14.68;76.85;99411.19;4120200;84;21163;-80
2022/05/15 05:59:54;;;;;;;24.92;15.55;;;;;;;14.91;76.76;99410.24;4129181;85;21023;-81
2022/05/15 06:05:55;;;;;;;22.25;15.05;;;;;;;15.11;76.40;99414.17;4116341;84;21019;-80
2022/05/15 06:11:57;;;;;;;18.87;13.28;;;;;;;15.23;75.72;99413.77;4113667;85;21101;-80
2022/05/15 06:18:04;;;;;;;23.05;14.73;;;;;;;15.45;75.80;99413.38;4127845;84;20997;-80
2022/05/15 06:24:07;;;;;;;20.40;14.25;;;;;;;15.67;75.45;99412.73;4115534;85;21059;-81
2022/05/15 06:30:12;;;;;;;20.17;11.75;;;;;;;16.05;74.73;99421.48;4109024;84;21138;-82
2022/05/15 06:36:13;;;;;;;19.75;13.18;;;;;;;16.44;74.33;99417.97;4117002;85;21043;-80
2022/05/15 06:42:15;;;;;;;21.60;12.63;;;;;;;16.52;73.55;99424.23;4114677;85;21028;-80
2022/05/15 06:48:16;;;;;;;20.27;11.88;;;;;;;16.58;73.11;99432.28;4112896;85;21917;-80
2022/05/15 06:54:18;;;;;;;19.30;13.40;;;;;;;16.67;73.35;99433.41;4115140;85;21131;-81
2022/05/15 07:00:25;;;;;;;17.23;10.93;;;;;;;16.87;72.63;99428.13;4110392;85;21132;-80
2022/05/15 07:06:26;;;;;;;14.35;10.48;;;;;;;17.26;72.52;99431.36;4111950;85;21032;-81
2022/05/15 07:12:28;;;;;;;16.52;9.23;;;;;;;17.66;71.62;99428.45;4076098;86;21041;-81
2022/05/15 07:18:29;;;;;;;20.65;11.35;;;;;;;18.08;70.71;99439.05;4087549;86;21073;-81
2022/05/15 07:24:31;;;;;;;19.25;10.32;;;;;;;18.57;70.06;99434.28;4099911;86;21511;-81
2022/05/15 07:30:32;;;;;;;14.95;8.85;;;;;;;19.08;69.33;99432.51;4079764;86;21622;-81
2022/05/15 07:36:34;;;;;;;16.00;8.63;;;;;;;19.45;67.42;99431.53;4092903;85;21043;-82
2022/05/15 07:42:38;;;;;;;15.50;9.68;;;;;;;19.89;67.31;99435.24;4092794;86;21051;-81
2022/05/15 07:48:40;;;;;;;15.32;7.95;;;;;;;20.31;66.11;99437.22;4071615;86;21032;-81
2022/05/15 07:54:41;;;;;;;12.37;7.33;;;;;;;20.66;65.03;99440.60;4085103;86;21114;-81
2022/05/15 08:00:42;;;;;;;12.65;7.53;;;;;;;21.23;63.84;99438.09;4088446;85;21572;-81
2022/05/15 08:13:05;;;;;;;13.80;5.80;;;;;;;21.14;61.65;99442.07;4094302;86;21091;-81
2022/05/15 08:25:28;;;;;;;10.30;5.55;;;;;;;20.55;59.64;99437.27;4082068;85;21104;-82
2022/05/15 08:31:30;;;;;;;12.07;5.40;;;;;;;20.79;58.47;99434.55;4088868;85;21108;-84
2022/05/15 08:37:31;;;;;;;8.93;4.37;;;;;;;21.05;57.48;99442.50;4079966;86;21083;-81
2022/05/15 08:44:06;;;;;;;8.45;4.10;;;;;;;20.61;56.02;99449.45;4095124;86;21099;-81
2022/05/15 08:50:18;;;;;;;9.20;4.03;;;;;;;19.89;55.44;99448.54;4086646;86;21548;-81
2022/05/15 08:56:20;;;;;;;12.13;4.30;;;;;;;19.81;55.40;99443.56;4083299;86;21843;-81
2022/05/15 09:02:23;;;;;;;15.25;4.17;;;;;;;19.76;55.34;99446.20;4096059;85;21662;-81
2022/05/15 09:08:54;;;;;;;7.55;3.52;;;;;;;19.83;54.79;99441.91;4090742;85;21123;-81
2022/05/15 09:15:04;;;;;;;13.78;6.08;;;;;;;20.23;54.45;99444.73;4043876;85;27175;-82
2022/05/15 09:21:13;;;;;;;12.35;5.55;;;;;;;19.92;54.24;99450.46;4008842;87;21829;-81
2022/05/15 09:27:19;;;;;;;11.45;4.12;;;;;;;19.59;54.56;99450.71;3998147;87;21905;-82
2022/05/15 09:33:45;;;;;;;10.35;3.50;;;;;;;20.13;54.64;99447.88;4001774;86;21548;-82
2022/05/15 09:39:52;;;;;;;9.83;3.57;;;;;;;21.34;53.92;99444.78;3998908;87;21078;-83
2022/05/15 09:45:58;;;;;;;;;;;;;;;22.52;52.01;99449.70;4006243;87;21034;-82
2022/05/15 09:52:04;;;;;;;8.73;2.35;;;;;;;22.45;48.47;99446.31;4010016;87;20387;-82
2022/05/15 09:58:17;;;;;;;7.00;2.75;;;;;;;21.81;50.64;99446.56;4021402;87;21046;-81
2022/05/15 10:04:25;;;;;;;6.80;2.98;;;;;;;21.79;50.40;99444.81;4000513;87;20983;-81
2022/05/15 10:10:52;;;;;;;8.35;2.85;;;;;;;21.58;49.73;99457.30;3991237;87;21069;-80
2022/05/15 10:16:56;;;;;;;7.33;3.07;;;;;;;21.14;49.42;99458.77;4088987;85;21049;-81
2022/05/15 10:23:09;;;;;;;6.35;2.65;;;;;;;22.00;49.05;99445.04;4093688;85;21659;-80
2022/05/15 10:29:45;;;;;;;6.85;2.98;;;;;;;22.83;46.12;99445.78;4091445;85;21069;-81
2022/05/15 10:36:01;;;;;;;5.80;2.77;;;;;;;21.99;47.17;99442.69;4094630;85;21116;-82
2022/05/15 10:42:17;;;;;;;7.25;2.83;;;;;;;21.63;47.30;99442.22;4094340;85;21843;-82
2022/05/15 10:48:32;;;;;;;4.63;2.00;;;;;;;22.96;46.09;99438.97;4097416;84;21113;-81
2022/05/15 11:01:32;;;;;;;7.37;2.62;;;;;;;24.07;44.14;99432.80;4096223;83;21042;-81
2022/05/15 11:07:48;;;;;;;6.87;2.75;;;;;;;23.41;44.16;99433.75;3994466;86;21419;-82
2022/05/15 11:14:17;;;;;;;11.53;2.42;;;;;;;24.67;43.32;99424.20;4063392;86;21057;-81
2022/05/15 11:20:23;;;;;;;9.13;2.42;;;;;;;25.37;42.27;99416.50;4059353;86;21061;-81
2022/05/15 11:26:38;;;;;;;8.08;2.50;;;;;;;24.52;41.80;99419.09;4063826;86;21081;-83
2022/05/15 11:32:48;;;;;;;6.50;2.27;;;;;;;24.65;42.24;99419.78;4058643;86;21057;-82
2022/05/15 11:39:15;;;;;;;5.28;2.80;;;;;;;25.44;40.25;99416.83;4056695;86;21054;-83
2022/05/15 11:45:37;;;;;;;6.12;2.75;;;;;;;25.39;39.87;99421.03;4060207;86;21094;-83
2022/05/15 11:51:39;;;;;;;5.87;2.65;;;;;;;24.80;40.00;99419.26;4055836;86;21582;-82
2022/05/15 11:57:45;;;;;;;8.28;2.30;;;;;;;24.97;39.26;99410.77;4063689;86;20999;-83
2022/05/15 12:03:51;;;;;;;7.13;2.60;;;;;;;24.88;39.03;99411.53;4061025;85;21566;-82
2022/05/15 12:09:52;;;;;;;7.85;2.42;;;;;;;24.76;38.91;99408.19;4061105;86;21093;-82
2022/05/15 12:16:25;;;;;;;7.37;3.00;;;;;;;24.57;35.66;99398.91;4025182;86;21117;-82
2022/05/15 12:22:38;;;;;;;6.60;2.75;;;;;;;24.31;37.88;99399.55;3934927;88;21151;-82
2022/05/15 12:29:06;;;;;;;8.73;2.30;;;;;;;24.08;36.87;99393.03;3997259;85;22165;-82
2022/05/15 12:35:18;;;;;;;7.70;2.25;;;;;;;23.85;37.14;99384.44;4006802;87;21042;-81
2022/05/15 12:41:25;;;;;;;4.60;1.75;;;;;;;23.92;37.05;99387.00;3994872;87;21145;-81
2022/05/15 12:47:31;;;;;;;8.63;2.30;;;;;;;23.58;36.96;99385.64;3998947;86;21915;-82
2022/05/15 12:53:34;;;;;;;8.23;2.33;;;;;;;23.00;36.57;99369.06;3997996;87;21137;-82
2022/05/15 12:59:43;;;;;;;6.92;2.33;;;;;;;23.00;36.57;99369.06;3986741;87;21042;-82
2022/05/15 13:05:53;;;;;;;6.60;2.42;;;;;;;23.29;37.18;99368.92;3992518;87;21069;-82
2022/05/15 13:12:01;;;;;;;2.67;1.30;;;;;;;23.17;36.32;99368.47;3988764;87;22031;-82
2022/05/15 13:18:08;;;;;;;4.22;1.70;;;;;;;23.11;36.38;99350.73;4048149;86;21108;-82
2022/05/15 13:24:10;;;;;;;4.17;1.67;;;;;;;23.19;35.86;99358.25;4098056;86;21512;-82
2022/05/15 13:30:20;;;;;;;5.67;1.57;;;;;;;23.19;35.86;99358.25;4059949;85;41029;-81
2022/05/15 13:36:21;;;;;;;2.83;1.70;;;;;;;22.96;35.88;99353.81;4028590;85;21107;-81
2022/05/15 13:49:00;;;;;;;3.60;1.80;;;;;;;23.41;36.56;99352.13;4093952;84;21068;-81
2022/05/15 14:00:23;;;;;;;4.35;1.82;;;;;;;23.68;36.79;99340.39;4546953;76;22772;-82
2022/05/15 14:06:32;;;;;;;4.72;1.70;;;;;;;23.72;36.24;99333.43;4450950;78;21027;-82
2022/05/15 14:12:51;;;;;;;5.42;1.90;;;;;;;23.68;36.35;99333.40;4449063;78;21049;-82
2022/05/15 14:18:53;;;;;;;5.78;2.30;;;;;;;23.47;35.99;99332.14;4439414;78;21562;-82
2022/05/15 14:24:56;;;;;;;4.67;2.15;;;;;;;23.35;35.74;99319.62;4449516;78;21030;-83
2022/05/15 14:30:57;;;;;;;5.62;2.15;;;;;;;23.28;34.97;99315.67;4452089;78;20997;-83
2022/05/15 14:36:59;;;;;;;3.17;1.65;;;;;;;23.07;35.66;99310.17;4452143;78;21054;-82
2022/05/15 14:43:00;;;;;;;8.50;2.17;;;;;;;23.00;36.20;99314.62;4448165;78;21011;-82
2022/05/15 14:49:04;;;;;;;6.15;1.75;;;;;;;23.01;36.06;99312.77;4452666;78;21003;-82
2022/05/15 14:55:07;;;;;;;5.80;1.85;;;;;;;23.07;36.00;99303.19;4447456;78;21039;-81
2022/05/15 15:01:10;;;;;;;4.72;1.47;;;;;;;23.02;35.69;99307.34;4454439;78;21006;-82
2022/05/15 15:07:12;;;;;;;5.17;2.27;;;;;;;22.86;35.67;99306.72;4410401;79;21019;-82
2022/05/15 15:13:15;;;;;;;5.40;1.95;;;;;;;22.63;35.47;99300.13;4408353;79;20992;-81
2022/05/15 15:19:19;;;;;;;5.42;1.77;;;;;;;22.33;34.51;99295.09;4398978;79;21995;-81
2022/05/15 15:25:21;;;;;;;6.40;1.72;;;;;;;21.83;35.96;99287.47;4401293;79;21618;-83
2022/05/15 15:31:27;;;;;;;3.65;1.60;;;;;;;21.61;36.56;99299.03;4416826;80;21040;-82
2022/05/15 15:43:51;;;;;;;3.92;1.30;;;;;;;21.32;36.29;99278.14;4400755;79;21022;-82
2022/05/15 15:49:52;;;;;;;5.05;1.57;;;;;;;21.22;36.57;99284.02;4402473;79;21039;-83
2022/05/15 15:55:53;;;;;;;4.62;1.37;;;;;;;21.15;37.09;99289.76;4395005;79;21827;-81
2022/05/15 16:01:54;;;;;;;5.28;1.37;;;;;;;20.92;36.88;99285.77;4399403;79;21047;-83
2022/05/15 16:08:02;;;;;;;4.50;1.20;;;;;;;20.73;37.46;99283.28;4395568;79;20960;-81
2022/05/15 16:14:04;;;;;;;5.92;1.82;;;;;;;20.63;37.20;99280.14;4385127;79;21464;-81
2022/05/15 16:20:09;;;;;;;7.05;1.82;;;;;;;20.49;38.50;99288.83;4403089;79;21024;-81
2022/05/15 16:26:12;;;;;;;7.15;1.80;;;;;;;20.45;38.09;99292.32;4398841;79;21515;-82
2022/05/15 16:32:14;;;;;;;3.95;1.40;;;;;;;20.38;38.27;99283.34;4375718;79;21042;-82
2022/05/15 16:38:18;;;;;;;4.10;1.70;;;;;;;20.24;38.95;99280.30;4402036;79;21014;-82
2022/05/15 16:44:20;;;;;;;4.78;1.90;;;;;;;19.98;39.74;99283.42;4401702;79;21086;-81
2022/05/15 16:50:22;;;;;;;5.62;1.77;;;;;;;19.83;40.70;99287.73;4397127;79;21492;-81
2022/05/15 16:56:23;;;;;;;5.00;1.60;;;;;;;19.58;41.96;99287.47;4404561;79;21090;-81
2022/05/15 17:02:26;;;;;;;7.37;1.47;;;;;;;19.44;42.35;99291.92;4422288;79;20994;-81
2022/05/15 17:08:27;;;;;;;5.85;1.57;;;;;;;19.25;42.38;99288.49;4424191;79;21044;-81
2022/05/15 17:14:29;;;;;;;3.30;1.40;;;;;;;19.09;43.49;99287.00;4428165;79;20978;-82
2022/05/15 17:20:30;;;;;;;4.28;1.60;;;;;;;18.95;43.41;99286.50;4425097;79;21567;-82
2022/05/15 17:26:31;;;;;;;4.30;1.60;;;;;;;18.79;44.03;99291.34;4424031;79;21591;-81
2022/05/15 17:38:53;;;;;;;7.80;2.10;;;;;;;18.49;44.10;99296.39;4426668;79;21046;-81
2022/05/15 17:44:55;;;;;;;3.65;1.32;;;;;;;18.35;44.80;99302.09;4432330;80;21000;-81
2022/05/15 17:50:56;;;;;;;6.10;1.77;;;;;;;18.21;44.83;99299.53;4422645;79;20974;-81
2022/05/15 17:56:59;;;;;;;5.75;2.58;;;;;;;18.04;44.58;99307.50;4413839;79;21958;-81
2022/05/15 18:03:02;;;;;;;4.72;1.57;;;;;;;17.88;44.81;99310.12;4402592;79;21894;-81
2022/05/15 18:09:05;;;;;;;8.85;2.50;;;;;;;17.70;44.42;99317.05;4416558;80;21531;-81
2022/05/15 18:15:07;;;;;;;9.63;4.60;;;;;;;17.55;44.41;99323.38;4402430;79;21031;-81
2022/05/15 18:21:08;;;;;;;13.40;5.78;;;;;;;17.38;44.36;99324.34;4400809;79;22069;-81
2022/05/15 18:27:11;;;;;;;14.53;7.25;;;;;;;17.23;44.70;99334.77;4398835;79;21863;-82
2022/05/15 18:33:13;;;;;;;12.55;5.10;;;;;;;17.08;44.66;99333.94;4396885;79;21364;-81
2022/05/15 18:39:15;;;;;;;15.65;5.37;;;;;;;16.66;44.77;99344.75;4397494;79;20975;-82
2022/05/15 18:45:17;;;;;;;23.35;11.12;;;;;;;16.32;45.56;99352.69;4408756;79;20957;-81
2022/05/15 18:57:38;;;;;;;9.10;4.12;;;;;;;15.90;46.60;99369.45;4404580;79;21006;-80
2022/05/15 19:03:42;;;;;;;10.63;4.15;;;;;;;15.78;47.19;99378.19;4434144;79;21002;-81
2022/05/15 19:09:44;;;;;;;10.93;3.55;;;;;;;15.54;47.56;99377.88;4430885;79;21006;-81
2022/05/15 19:15:47;;;;;;;11.20;4.75;;;;;;;15.27;48.14;99385.58;4424490;79;20991;-81
2022/05/15 19:21:48;;;;;;;20.57;4.67;;;;;;;14.99;48.77;99383.64;4435765;79;21960;-81
2022/05/15 19:30:27;;;;;;;6.08;3.67;;;;;;;14.62;50.05;99390.13;4436341;77;9999606;-81
2022/05/15 19:36:29;;;;;;;8.63;4.03;;;;;;;14.27;50.27;99394.19;4458563;78;22012;-81
2022/05/15 19:42:31;;;;;;;13.38;4.90;;;;;;;13.98;51.18;99403.52;4455831;78;20995;-81
2022/05/15 19:48:35;;;;;;;11.33;4.33;;;;;;;13.71;51.92;99410.45;4454872;78;21038;-81
2022/05/15 19:54:39;;;;;;;11.45;5.12;;;;;;;13.56;53.02;99415.69;4456591;78;21050;-80
2022/05/15 20:00:51;;;;;;;11.75;5.30;;;;;;;13.35;53.42;99412.80;4457375;79;21014;-80
2022/05/15 20:13:13;;;;;;;9.98;4.70;;;;;;;12.99;54.15;99407.60;4502506;78;20982;-80
2022/05/15 20:19:15;;;;;;;7.05;4.03;;;;;;;12.79;55.14;99403.52;4473216;77;20956;-80
2022/05/15 20:25:17;;;;;;;10.03;4.53;;;;;;;12.53;55.58;99403.64;4454844;78;21916;-81
2022/05/15 20:31:26;;;;;;;7.95;4.10;;;;;;;12.56;56.95;99410.55;4309235;79;10000278;-80
2022/05/15 20:37:27;;;;;;;8.80;4.30;;;;;;;12.57;57.27;99421.73;4318475;81;20959;-81
2022/05/15 20:43:29;;;;;;;6.92;4.58;;;;;;;12.28;57.43;99413.02;4397589;79;20976;-80
2022/05/15 20:49:31;;;;;;;9.28;4.85;;;;;;;12.16;58.01;99426.20;4409600;79;20971;-81
2022/05/15 20:55:32;;;;;;;13.13;5.22;;;;;;;11.98;58.36;99427.96;4410058;79;20976;-80
2022/05/15 21:01:34;;;;;;;13.20;5.03;;;;;;;11.73;58.78;99433.71;4407127;78;21851;-80
2022/05/15 21:07:35;;;;;;;9.13;4.87;;;;;;;11.49;59.40;99433.55;4413449;79;20991;-80
2022/05/15 21:13:38;;;;;;;10.18;4.95;;;;;;;11.36;60.19;99434.11;4285081;79;9999767;-80
2022/05/15 21:19:39;;;;;;;8.28;4.70;;;;;;;11.16;60.50;99429.89;4407793;79;21015;-79
2022/05/15 21:25:40;;;;;;;10.68;5.05;;;;;;;10.89;61.01;99429.07;4324105;81;20991;-81
2022/05/15 21:31:42;;;;;;;10.90;6.35;;;;;;;10.72;61.18;99437.78;4313831;81;21027;-80
2022/05/15 21:37:44;;;;;;;11.22;5.55;;;;;;;10.52;62.03;99437.02;4418297;79;20974;-80
2022/05/15 21:43:48;;;;;;;11.18;5.15;;;;;;;10.44;62.26;99427.13;4405650;79;21031;-78
2022/05/15 21:49:51;;;;;;;8.58;4.75;;;;;;;10.43;63.03;99416.55;4406661;79;20964;-79
2022/05/15 21:55:52;;;;;;;10.15;5.05;;;;;;;10.26;63.29;99415.61;4413803;79;21136;-80
2022/05/15 22:01:54;;;;;;;10.03;4.97;;;;;;;10.17;63.97;99419.95;4414533;79;20984;-80
2022/05/15 22:07:59;;;;;;;9.55;5.03;;;;;;;10.10;64.69;99425.88;4306436;81;21506;-80
2022/05/15 22:14:00;;;;;;;10.58;4.70;;;;;;;10.25;65.21;99429.09;4311871;81;21014;-79
2022/05/15 22:20:03;;;;;;;12.90;5.35;;;;;;;10.09;65.08;99422.91;4288649;82;21036;-78
2022/05/15 22:26:05;;;;;;;10.60;4.28;;;;;;;9.93;65.35;99425.69;4408964;79;21059;-80
2022/05/15 22:32:07;;;;;;;8.90;4.70;;;;;;;9.93;66.02;99433.12;4420139;79;22207;-81
2022/05/15 22:38:09;;;;;;;9.73;5.15;;;;;;;9.87;65.74;99436.70;4422023;79;21031;-79
2022/05/15 22:44:12;;;;;;;9.53;5.53;;;;;;;9.72;66.33;99438.13;4413528;79;21621;-79
2022/05/15 22:50:14;;;;;;;10.85;4.70;;;;;;;9.54;66.88;99435.01;4409812;79;21021;-80
2022/05/15 22:56:16;;;;;;;11.93;5.50;;;;;;;9.33;67.03;99440.78;4407092;79;21509;-79
2022/05/15 23:02:18;;;;;;;8.70;5.22;;;;;;;9.13;67.49;99437.78;4422597;79;21484;-80
2022/05/15 23:08:19;;;;;;;9.15;4.75;;;;;;;9.13;68.18;99431.55;4409044;79;21012;-78
2022/05/15 23:14:20;;;;;;;8.08;4.33;;;;;;;9.16;68.69;99426.73;4395833;79;21006;-79
2022/05/15 23:20:26;;;;;;;8.60;5.30;;;;;;;9.41;69.00;99437.66;4408489;79;21047;-80
2022/05/15 23:26:27;;;;;;;9.98;5.35;;;;;;;9.23;68.89;99430.98;4419134;79;21105;-79
2022/05/15 23:32:29;;;;;;;10.13;5.10;;;;;;;8.92;68.98;99428.30;4315551;81;20980;-80
2022/05/15 23:38:30;;;;;;;8.60;4.87;;;;;;;8.72;69.22;99424.67;4311925;81;21030;-78
2022/05/15 23:44:31;;;;;;;11.08;4.72;;;;;;;8.65;69.89;99428.60;4450480;79;21037;-80
2022/05/15 23:50:33;;;;;;;9.60;4.53;;;;;;;8.56;70.47;99422.53;4418943;79;21562;-79
2022/05/15 23:56:34;;;;;;;7.62;3.72;;;;;;;8.64;71.08;99418.04;4424358;79;20996;-79
